sensor_id;sensor_type;location;lat;lon;timestamp;temperature;humidity
13412;DHT22;67102;51.666;6.880;2023-03-16T00:00:09;8.20;55.40
13412;DHT22;67102;51.666;6.880;2023-03-16T00:05:04;8.20;55.50
13412;DHT22;67102;51.666;6.880;2023-03-16T00:07:31;8.20;55.50
13412;DHT22;67102;51.666;6.880;2023-03-16T00:09:57;8.20;55.50
13412;DHT22;67102;51.666;6.880;2023-03-16T00:12:23;8.10;55.60
13412;DHT22;67102;51.666;6.880;2023-03-16T00:17:17;8.10;55.70
13412;DHT22;67102;51.666;6.880;2023-03-16T00:19:45;8.10;55.90
13412;DHT22;67102;51.666;6.880;2023-03-16T00:22:14;8.10;55.90
13412;DHT22;67102;51.666;6.880;2023-03-16T00:24:40;8.00;55.90
13412;DHT22;67102;51.666;6.880;2023-03-16T00:29:33;8.00;56.00
13412;DHT22;67102;51.666;6.880;2023-03-16T00:39:19;8.00;56.20
13412;DHT22;67102;51.666;6.880;2023-03-16T00:53:56;7.90;56.70
13412;DHT22;67102;51.666;6.880;2023-03-16T00:56:24;7.90;56.80
13412;DHT22;67102;51.666;6.880;2023-03-16T00:58:50;7.90;56.80
13412;DHT22;67102;51.666;6.880;2023-03-16T01:01:17;7.80;56.90
13412;DHT22;67102;51.666;6.880;2023-03-16T01:06:12;8.00;57.20
13412;DHT22;67102;51.666;6.880;2023-03-16T01:11:07;7.90;57.40
13412;DHT22;67102;51.666;6.880;2023-03-16T01:13:35;7.90;57.50
13412;DHT22;67102;51.666;6.880;2023-03-16T01:16:02;8.10;57.60
13412;DHT22;67102;51.666;6.880;2023-03-16T01:23:21;8.00;57.80
13412;DHT22;67102;51.666;6.880;2023-03-16T01:25:47;8.00;57.70
13412;DHT22;67102;51.666;6.880;2023-03-16T01:28:13;8.00;57.80
13412;DHT22;67102;51.666;6.880;2023-03-16T01:30:42;8.00;57.90
13412;DHT22;67102;51.666;6.880;2023-03-16T01:33:08;8.10;58.00
13412;DHT22;67102;51.666;6.880;2023-03-16T01:38:00;8.10;58.20
13412;DHT22;67102;51.666;6.880;2023-03-16T01:43:00;8.10;58.20
13412;DHT22;67102;51.666;6.880;2023-03-16T01:48:54;8.10;58.20
13412;DHT22;67102;51.666;6.880;2023-03-16T01:51:26;8.20;58.20
13412;DHT22;67102;51.666;6.880;2023-03-16T01:53:57;8.20;58.20
13412;DHT22;67102;51.666;6.880;2023-03-16T01:56:26;8.20;58.10
13412;DHT22;67102;51.666;6.880;2023-03-16T01:58:57;8.20;58.00
13412;DHT22;67102;51.666;6.880;2023-03-16T02:01:26;8.20;58.00
13412;DHT22;67102;51.666;6.880;2023-03-16T02:03:56;8.20;57.90
13412;DHT22;67102;51.666;6.880;2023-03-16T02:06:33;8.20;57.80
13412;DHT22;67102;51.666;6.880;2023-03-16T02:09:00;8.20;57.80
13412;DHT22;67102;51.666;6.880;2023-03-16T02:11:27;8.20;57.70
13412;DHT22;67102;51.666;6.880;2023-03-16T02:13:54;8.20;57.70
13412;DHT22;67102;51.666;6.880;2023-03-16T02:18:51;8.20;57.90
13412;DHT22;67102;51.666;6.880;2023-03-16T02:21:21;8.10;57.80
13412;DHT22;67102;51.666;6.880;2023-03-16T02:26:24;8.10;57.70
13412;DHT22;67102;51.666;6.880;2023-03-16T02:29:05;8.10;57.80
13412;DHT22;67102;51.666;6.880;2023-03-16T02:31:38;8.10;57.70
13412;DHT22;67102;51.666;6.880;2023-03-16T02:34:04;8.10;57.70
13412;DHT22;67102;51.666;6.880;2023-03-16T02:36:32;8.10;57.80
13412;DHT22;67102;51.666;6.880;2023-03-16T02:38:59;7.90;57.70
13412;DHT22;67102;51.666;6.880;2023-03-16T02:41:25;8.10;57.90
13412;DHT22;67102;51.666;6.880;2023-03-16T02:43:54;8.00;57.70
13412;DHT22;67102;51.666;6.880;2023-03-16T02:46:26;8.10;57.80
13412;DHT22;67102;51.666;6.880;2023-03-16T02:48:58;8.00;57.80
13412;DHT22;67102;51.666;6.880;2023-03-16T02:51:25;8.00;57.90
13412;DHT22;67102;51.666;6.880;2023-03-16T02:56:18;8.00;58.00
13412;DHT22;67102;51.666;6.880;2023-03-16T02:58:43;7.90;58.00
13412;DHT22;67102;51.666;6.880;2023-03-16T03:06:03;8.30;58.40
13412;DHT22;67102;51.666;6.880;2023-03-16T03:08:30;8.10;58.40
13412;DHT22;67102;51.666;6.880;2023-03-16T03:20:41;7.90;58.60
13412;DHT22;67102;51.666;6.880;2023-03-16T03:23:08;8.00;58.60
13412;DHT22;67102;51.666;6.880;2023-03-16T03:28:02;8.10;58.80
13412;DHT22;67102;51.666;6.880;2023-03-16T03:37:47;8.20;59.00
13412;DHT22;67102;51.666;6.880;2023-03-16T03:40:17;8.20;59.10
13412;DHT22;67102;51.666;6.880;2023-03-16T03:45:11;8.10;59.10
13412;DHT22;67102;51.666;6.880;2023-03-16T03:47:38;8.20;59.20
13412;DHT22;67102;51.666;6.880;2023-03-16T03:50:06;8.20;59.20
13412;DHT22;67102;51.666;6.880;2023-03-16T03:57:26;8.20;59.10
13412;DHT22;67102;51.666;6.880;2023-03-16T04:04:45;8.30;59.10
13412;DHT22;67102;51.666;6.880;2023-03-16T04:07:11;8.30;59.10
13412;DHT22;67102;51.666;6.880;2023-03-16T04:12:05;8.10;59.00
13412;DHT22;67102;51.666;6.880;2023-03-16T04:14:33;8.30;59.10
13412;DHT22;67102;51.666;6.880;2023-03-16T04:16:59;8.10;59.00
13412;DHT22;67102;51.666;6.880;2023-03-16T04:19:25;8.30;59.20
13412;DHT22;67102;51.666;6.880;2023-03-16T04:21:51;8.30;59.20
13412;DHT22;67102;51.666;6.880;2023-03-16T04:24:18;8.20;59.20
13412;DHT22;67102;51.666;6.880;2023-03-16T04:26:45;8.30;59.30
13412;DHT22;67102;51.666;6.880;2023-03-16T04:29:11;8.30;59.30
13412;DHT22;67102;51.666;6.880;2023-03-16T04:31:39;8.30;59.30
13412;DHT22;67102;51.666;6.880;2023-03-16T04:34:06;8.30;59.40
13412;DHT22;67102;51.666;6.880;2023-03-16T04:36:32;8.30;59.50
13412;DHT22;67102;51.666;6.880;2023-03-16T04:41:24;8.30;59.50
13412;DHT22;67102;51.666;6.880;2023-03-16T04:43:51;8.30;59.60
13412;DHT22;67102;51.666;6.880;2023-03-16T04:48:44;8.30;59.70
13412;DHT22;67102;51.666;6.880;2023-03-16T04:51:10;8.30;59.80
13412;DHT22;67102;51.666;6.880;2023-03-16T04:53:36;8.40;60.00
13412;DHT22;67102;51.666;6.880;2023-03-16T05:00:56;8.40;60.20
13412;DHT22;67102;51.666;6.880;2023-03-16T05:05:50;8.50;60.40
13412;DHT22;67102;51.666;6.880;2023-03-16T05:08:16;8.60;60.60
13412;DHT22;67102;51.666;6.880;2023-03-16T05:13:08;8.60;60.60
13412;DHT22;67102;51.666;6.880;2023-03-16T05:18:00;8.60;60.50
13412;DHT22;67102;51.666;6.880;2023-03-16T05:22:54;8.80;60.40
13412;DHT22;67102;51.666;6.880;2023-03-16T05:27:48;8.90;60.40
13412;DHT22;67102;51.666;6.880;2023-03-16T05:30:16;8.90;60.30
13412;DHT22;67102;51.666;6.880;2023-03-16T05:32:43;9.10;60.40
13412;DHT22;67102;51.666;6.880;2023-03-16T05:35:10;9.00;60.20
13412;DHT22;67102;51.666;6.880;2023-03-16T05:40:06;9.20;60.30
13412;DHT22;67102;51.666;6.880;2023-03-16T05:47:26;9.10;60.00
13412;DHT22;67102;51.666;6.880;2023-03-16T05:49:52;9.10;59.90
13412;DHT22;67102;51.666;6.880;2023-03-16T05:52:18;9.20;59.90
13412;DHT22;67102;51.666;6.880;2023-03-16T05:57:13;9.20;59.80
13412;DHT22;67102;51.666;6.880;2023-03-16T05:59:39;9.10;59.70
13412;DHT22;67102;51.666;6.880;2023-03-16T06:02:05;9.30;59.80
13412;DHT22;67102;51.666;6.880;2023-03-16T06:09:24;9.20;59.80
13412;DHT22;67102;51.666;6.880;2023-03-16T06:11:50;9.10;59.80
13412;DHT22;67102;51.666;6.880;2023-03-16T06:14:17;9.20;59.90
13412;DHT22;67102;51.666;6.880;2023-03-16T06:19:09;9.10;60.00
13412;DHT22;67102;51.666;6.880;2023-03-16T06:21:35;9.30;60.20
13412;DHT22;67102;51.666;6.880;2023-03-16T06:26:27;9.30;60.40
13412;DHT22;67102;51.666;6.880;2023-03-16T06:28:53;9.30;60.40
13412;DHT22;67102;51.666;6.880;2023-03-16T06:31:21;9.30;60.40
13412;DHT22;67102;51.666;6.880;2023-03-16T06:38:39;9.40;60.70
13412;DHT22;67102;51.666;6.880;2023-03-16T06:41:05;9.50;60.80
13412;DHT22;67102;51.666;6.880;2023-03-16T06:48:25;9.60;61.00
13412;DHT22;67102;51.666;6.880;2023-03-16T06:50:51;9.90;61.10
13412;DHT22;67102;51.666;6.880;2023-03-16T06:53:17;9.90;60.80
13412;DHT22;67102;51.666;6.880;2023-03-16T06:55:43;9.90;60.50
13412;DHT22;67102;51.666;6.880;2023-03-16T07:00:36;10.00;60.20
13412;DHT22;67102;51.666;6.880;2023-03-16T07:03:02;10.00;60.10
13412;DHT22;67102;51.666;6.880;2023-03-16T07:05:29;10.10;60.00
13412;DHT22;67102;51.666;6.880;2023-03-16T07:10:22;10.30;60.20
13412;DHT22;67102;51.666;6.880;2023-03-16T07:15:14;10.20;60.00
13412;DHT22;67102;51.666;6.880;2023-03-16T07:17:41;10.30;60.20
13412;DHT22;67102;51.666;6.880;2023-03-16T07:20:08;10.40;60.60
13412;DHT22;67102;51.666;6.880;2023-03-16T07:22:37;10.50;61.10
13412;DHT22;67102;51.666;6.880;2023-03-16T07:25:03;10.70;61.40
13412;DHT22;67102;51.666;6.880;2023-03-16T07:27:30;10.80;61.10
13412;DHT22;67102;51.666;6.880;2023-03-16T07:32:23;11.20;59.90
13412;DHT22;67102;51.666;6.880;2023-03-16T07:37:15;11.40;59.20
13412;DHT22;67102;51.666;6.880;2023-03-16T07:39:42;11.50;58.80
13412;DHT22;67102;51.666;6.880;2023-03-16T07:44:35;11.70;58.20
13412;DHT22;67102;51.666;6.880;2023-03-16T07:47:01;11.80;58.00
13412;DHT22;67102;51.666;6.880;2023-03-16T07:49:27;11.90;57.80
13412;DHT22;67102;51.666;6.880;2023-03-16T07:56:47;11.80;57.90
13412;DHT22;67102;51.666;6.880;2023-03-16T08:06:31;12.10;57.20
13412;DHT22;67102;51.666;6.880;2023-03-16T08:13:51;12.20;56.40
13412;DHT22;67102;51.666;6.880;2023-03-16T08:18:44;12.50;55.90
13412;DHT22;67102;51.666;6.880;2023-03-16T08:23:37;12.60;55.70
13412;DHT22;67102;51.666;6.880;2023-03-16T08:26:03;12.60;55.40
13412;DHT22;67102;51.666;6.880;2023-03-16T08:28:29;12.60;57.10
13412;DHT22;67102;51.666;6.880;2023-03-16T08:30:56;12.60;58.10
13412;DHT22;67102;51.666;6.880;2023-03-16T08:33:22;12.70;58.20
13412;DHT22;67102;51.666;6.880;2023-03-16T08:35:48;12.90;58.40
13412;DHT22;67102;51.666;6.880;2023-03-16T08:38:14;13.00;58.00
13412;DHT22;67102;51.666;6.880;2023-03-16T08:40:40;13.30;57.30
13412;DHT22;67102;51.666;6.880;2023-03-16T08:45:33;13.40;54.90
13412;DHT22;67102;51.666;6.880;2023-03-16T08:48:00;13.30;54.20
13412;DHT22;67102;51.666;6.880;2023-03-16T08:50:26;13.30;54.00
13412;DHT22;67102;51.666;6.880;2023-03-16T08:55:18;13.10;53.80
13412;DHT22;67102;51.666;6.880;2023-03-16T09:00:12;13.00;53.60
13412;DHT22;67102;51.666;6.880;2023-03-16T09:02:39;12.80;53.50
13412;DHT22;67102;51.666;6.880;2023-03-16T09:05:07;12.80;53.60
13412;DHT22;67102;51.666;6.880;2023-03-16T09:07:34;12.70;54.00
13412;DHT22;67102;51.666;6.880;2023-03-16T09:10:00;12.50;54.10
13412;DHT22;67102;51.666;6.880;2023-03-16T09:14:52;12.40;54.70
13412;DHT22;67102;51.666;6.880;2023-03-16T09:17:18;12.50;55.20
13412;DHT22;67102;51.666;6.880;2023-03-16T09:19:44;12.40;55.30
13412;DHT22;67102;51.666;6.880;2023-03-16T09:22:12;12.40;55.40
13412;DHT22;67102;51.666;6.880;2023-03-16T09:24:38;12.40;55.60
13412;DHT22;67102;51.666;6.880;2023-03-16T09:27:04;12.40;55.80
13412;DHT22;67102;51.666;6.880;2023-03-16T09:31:56;12.40;56.60
13412;DHT22;67102;51.666;6.880;2023-03-16T09:39:16;12.80;56.70
13412;DHT22;67102;51.666;6.880;2023-03-16T09:41:47;12.90;56.40
13412;DHT22;67102;51.666;6.880;2023-03-16T09:44:25;13.00;56.30
13412;DHT22;67102;51.666;6.880;2023-03-16T09:47:00;13.10;55.50
13412;DHT22;67102;51.666;6.880;2023-03-16T09:49:33;13.20;55.20
13412;DHT22;67102;51.666;6.880;2023-03-16T09:52:10;13.30;55.00
13412;DHT22;67102;51.666;6.880;2023-03-16T09:54:52;13.30;55.20
13412;DHT22;67102;51.666;6.880;2023-03-16T09:57:25;13.30;55.40
13412;DHT22;67102;51.666;6.880;2023-03-16T09:59:52;13.50;55.60
13412;DHT22;67102;51.666;6.880;2023-03-16T10:02:37;13.60;55.70
13412;DHT22;67102;51.666;6.880;2023-03-16T10:05:11;13.60;55.40
13412;DHT22;67102;51.666;6.880;2023-03-16T10:07:46;13.70;55.10
13412;DHT22;67102;51.666;6.880;2023-03-16T10:10:25;13.70;54.70
13412;DHT22;67102;51.666;6.880;2023-03-16T10:12:59;13.70;54.30
13412;DHT22;67102;51.666;6.880;2023-03-16T10:15:27;13.60;54.40
13412;DHT22;67102;51.666;6.880;2023-03-16T10:17:57;13.80;54.30
13412;DHT22;67102;51.666;6.880;2023-03-16T10:20:27;13.70;54.10
13412;DHT22;67102;51.666;6.880;2023-03-16T10:22:53;13.70;54.30
13412;DHT22;67102;51.666;6.880;2023-03-16T10:25:26;13.70;54.50
13412;DHT22;67102;51.666;6.880;2023-03-16T10:30:25;13.70;55.00
13412;DHT22;67102;51.666;6.880;2023-03-16T10:32:52;13.70;55.00
13412;DHT22;67102;51.666;6.880;2023-03-16T10:35:28;13.80;54.80
13412;DHT22;67102;51.666;6.880;2023-03-16T10:38:00;13.80;54.10
13412;DHT22;67102;51.666;6.880;2023-03-16T10:40:30;13.80;53.90
13412;DHT22;67102;51.666;6.880;2023-03-16T10:45:30;13.70;53.70
13412;DHT22;67102;51.666;6.880;2023-03-16T10:48:05;13.70;53.40
13412;DHT22;67102;51.666;6.880;2023-03-16T10:50:32;13.70;53.60
13412;DHT22;67102;51.666;6.880;2023-03-16T10:55:28;13.70;54.10
13412;DHT22;67102;51.666;6.880;2023-03-16T10:57:55;13.70;53.90
13412;DHT22;67102;51.666;6.880;2023-03-16T11:00:25;13.70;54.10
13412;DHT22;67102;51.666;6.880;2023-03-16T11:02:53;13.70;54.30
13412;DHT22;67102;51.666;6.880;2023-03-16T11:05:27;13.70;54.30
13412;DHT22;67102;51.666;6.880;2023-03-16T11:07:58;13.70;54.40
13412;DHT22;67102;51.666;6.880;2023-03-16T11:10:30;13.80;54.70
13412;DHT22;67102;51.666;6.880;2023-03-16T11:13:04;13.90;55.00
13412;DHT22;67102;51.666;6.880;2023-03-16T11:15:39;13.90;54.90
13412;DHT22;67102;51.666;6.880;2023-03-16T11:18:19;14.00;54.90
13412;DHT22;67102;51.666;6.880;2023-03-16T11:20:50;13.90;54.80
13412;DHT22;67102;51.666;6.880;2023-03-16T11:23:18;14.10;55.00
13412;DHT22;67102;51.666;6.880;2023-03-16T11:25:51;14.40;54.80
13412;DHT22;67102;51.666;6.880;2023-03-16T11:28:23;14.50;54.40
13412;DHT22;67102;51.666;6.880;2023-03-16T11:31:05;14.60;54.20
13412;DHT22;67102;51.666;6.880;2023-03-16T11:33:38;14.70;53.40
13412;DHT22;67102;51.666;6.880;2023-03-16T11:36:16;14.80;52.70
13412;DHT22;67102;51.666;6.880;2023-03-16T11:38:52;14.80;52.20
13412;DHT22;67102;51.666;6.880;2023-03-16T11:41:35;14.80;52.50
13412;DHT22;67102;51.666;6.880;2023-03-16T11:44:12;14.90;52.60
13412;DHT22;67102;51.666;6.880;2023-03-16T11:46:48;15.00;52.80
13412;DHT22;67102;51.666;6.880;2023-03-16T11:49:30;15.10;51.90
13412;DHT22;67102;51.666;6.880;2023-03-16T11:52:11;15.10;50.80
13412;DHT22;67102;51.666;6.880;2023-03-16T11:54:54;15.00;51.00
13412;DHT22;67102;51.666;6.880;2023-03-16T11:57:38;15.30;51.10
13412;DHT22;67102;51.666;6.880;2023-03-16T12:00:19;15.30;50.40
13412;DHT22;67102;51.666;6.880;2023-03-16T12:03:25;15.30;49.80
13412;DHT22;67102;51.666;6.880;2023-03-16T12:06:05;15.50;49.00
13412;DHT22;67102;51.666;6.880;2023-03-16T12:08:46;15.40;48.90
13412;DHT22;67102;51.666;6.880;2023-03-16T12:11:22;15.50;49.30
13412;DHT22;67102;51.666;6.880;2023-03-16T12:14:04;15.40;49.70
13412;DHT22;67102;51.666;6.880;2023-03-16T12:16:38;15.50;48.30
13412;DHT22;67102;51.666;6.880;2023-03-16T12:19:13;15.50;48.10
13412;DHT22;67102;51.666;6.880;2023-03-16T12:21:44;15.60;48.20
13412;DHT22;67102;51.666;6.880;2023-03-16T12:24:14;15.60;47.90
13412;DHT22;67102;51.666;6.880;2023-03-16T12:26:43;15.60;48.00
13412;DHT22;67102;51.666;6.880;2023-03-16T12:29:18;15.70;48.50
13412;DHT22;67102;51.666;6.880;2023-03-16T12:31:52;15.70;48.00
13412;DHT22;67102;51.666;6.880;2023-03-16T12:34:25;15.80;48.10
13412;DHT22;67102;51.666;6.880;2023-03-16T12:37:10;15.80;48.50
13412;DHT22;67102;51.666;6.880;2023-03-16T12:39:52;15.80;48.50
13412;DHT22;67102;51.666;6.880;2023-03-16T12:42:42;15.90;48.30
13412;DHT22;67102;51.666;6.880;2023-03-16T12:45:21;16.00;47.60
13412;DHT22;67102;51.666;6.880;2023-03-16T12:47:57;16.00;47.10
13412;DHT22;67102;51.666;6.880;2023-03-16T12:50:26;16.10;47.20
13412;DHT22;67102;51.666;6.880;2023-03-16T12:52:53;16.10;46.90
13412;DHT22;67102;51.666;6.880;2023-03-16T12:55:23;16.10;47.60
13412;DHT22;67102;51.666;6.880;2023-03-16T12:57:58;16.10;47.50
13412;DHT22;67102;51.666;6.880;2023-03-16T13:00:33;16.20;47.40
13412;DHT22;67102;51.666;6.880;2023-03-16T13:03:00;16.10;46.50
13412;DHT22;67102;51.666;6.880;2023-03-16T13:05:29;16.10;47.10
13412;DHT22;67102;51.666;6.880;2023-03-16T13:08:06;16.20;47.30
13412;DHT22;67102;51.666;6.880;2023-03-16T13:10:34;16.30;47.60
13412;DHT22;67102;51.666;6.880;2023-03-16T13:13:07;16.30;47.50
13412;DHT22;67102;51.666;6.880;2023-03-16T13:15:35;16.30;47.50
13412;DHT22;67102;51.666;6.880;2023-03-16T13:18:05;16.40;47.20
13412;DHT22;67102;51.666;6.880;2023-03-16T13:20:54;16.50;47.10
13412;DHT22;67102;51.666;6.880;2023-03-16T13:23:23;16.50;47.40
13412;DHT22;67102;51.666;6.880;2023-03-16T13:26:03;16.50;47.30
13412;DHT22;67102;51.666;6.880;2023-03-16T13:28:32;16.60;47.00
13412;DHT22;67102;51.666;6.880;2023-03-16T13:31:02;16.70;46.60
13412;DHT22;67102;51.666;6.880;2023-03-16T13:33:30;16.70;46.50
13412;DHT22;67102;51.666;6.880;2023-03-16T13:35:58;16.70;45.90
13412;DHT22;67102;51.666;6.880;2023-03-16T13:38:26;16.70;47.20
13412;DHT22;67102;51.666;6.880;2023-03-16T13:40:54;16.80;47.50
13412;DHT22;67102;51.666;6.880;2023-03-16T13:43:23;16.80;47.90
13412;DHT22;67102;51.666;6.880;2023-03-16T13:45:51;16.90;48.50
13412;DHT22;67102;51.666;6.880;2023-03-16T13:48:18;17.00;48.50
13412;DHT22;67102;51.666;6.880;2023-03-16T13:50:49;17.20;48.40
13412;DHT22;67102;51.666;6.880;2023-03-16T13:53:19;17.30;48.30
13412;DHT22;67102;51.666;6.880;2023-03-16T13:55:47;17.40;48.10
13412;DHT22;67102;51.666;6.880;2023-03-16T13:58:23;17.50;47.70
13412;DHT22;67102;51.666;6.880;2023-03-16T14:00:55;17.50;47.00
13412;DHT22;67102;51.666;6.880;2023-03-16T14:03:28;17.60;46.50
13412;DHT22;67102;51.666;6.880;2023-03-16T14:05:56;17.60;45.60
13412;DHT22;67102;51.666;6.880;2023-03-16T14:08:23;17.60;45.10
13412;DHT22;67102;51.666;6.880;2023-03-16T14:10:50;17.50;44.80
13412;DHT22;67102;51.666;6.880;2023-03-16T14:13:24;17.50;45.30
13412;DHT22;67102;51.666;6.880;2023-03-16T14:15:59;17.40;45.10
13412;DHT22;67102;51.666;6.880;2023-03-16T14:18:31;17.30;45.00
13412;DHT22;67102;51.666;6.880;2023-03-16T14:23:30;17.20;45.40
13412;DHT22;67102;51.666;6.880;2023-03-16T14:25:58;17.10;45.20
13412;DHT22;67102;51.666;6.880;2023-03-16T14:28:27;17.10;44.90
13412;DHT22;67102;51.666;6.880;2023-03-16T14:31:02;17.00;44.70
13412;DHT22;67102;51.666;6.880;2023-03-16T14:33:32;16.80;44.60
13412;DHT22;67102;51.666;6.880;2023-03-16T14:36:06;16.80;44.90
13412;DHT22;67102;51.666;6.880;2023-03-16T14:38:36;16.80;44.90
13412;DHT22;67102;51.666;6.880;2023-03-16T14:41:03;16.70;45.30
13412;DHT22;67102;51.666;6.880;2023-03-16T14:43:32;16.80;45.40
13412;DHT22;67102;51.666;6.880;2023-03-16T14:48:27;16.60;45.10
13412;DHT22;67102;51.666;6.880;2023-03-16T14:50:56;16.60;45.30
13412;DHT22;67102;51.666;6.880;2023-03-16T14:53:23;16.60;45.60
13412;DHT22;67102;51.666;6.880;2023-03-16T14:55:49;16.50;45.40
13412;DHT22;67102;51.666;6.880;2023-03-16T14:58:15;16.50;45.60
13412;DHT22;67102;51.666;6.880;2023-03-16T15:00:42;16.50;45.80
13412;DHT22;67102;51.666;6.880;2023-03-16T15:03:10;16.40;45.90
13412;DHT22;67102;51.666;6.880;2023-03-16T15:05:39;16.30;46.10
13412;DHT22;67102;51.666;6.880;2023-03-16T15:08:14;16.50;46.30
13412;DHT22;67102;51.666;6.880;2023-03-16T15:10:42;16.50;46.10
13412;DHT22;67102;51.666;6.880;2023-03-16T15:13:12;16.50;45.90
13412;DHT22;67102;51.666;6.880;2023-03-16T15:15:39;16.50;45.70
13412;DHT22;67102;51.666;6.880;2023-03-16T15:18:05;16.40;45.90
13412;DHT22;67102;51.666;6.880;2023-03-16T15:20:33;16.40;46.00
13412;DHT22;67102;51.666;6.880;2023-03-16T15:23:03;16.40;46.30
13412;DHT22;67102;51.666;6.880;2023-03-16T15:25:34;16.40;46.50
13412;DHT22;67102;51.666;6.880;2023-03-16T15:28:02;16.40;46.40
13412;DHT22;67102;51.666;6.880;2023-03-16T15:30:30;16.40;46.50
13412;DHT22;67102;51.666;6.880;2023-03-16T15:32:56;16.30;46.50
13412;DHT22;67102;51.666;6.880;2023-03-16T15:35:22;16.40;46.60
13412;DHT22;67102;51.666;6.880;2023-03-16T15:40:18;16.40;46.30
13412;DHT22;67102;51.666;6.880;2023-03-16T15:42:47;16.40;46.30
13412;DHT22;67102;51.666;6.880;2023-03-16T15:45:15;16.40;46.40
13412;DHT22;67102;51.666;6.880;2023-03-16T15:47:43;16.40;46.40
13412;DHT22;67102;51.666;6.880;2023-03-16T15:50:10;16.30;46.20
13412;DHT22;67102;51.666;6.880;2023-03-16T15:52:37;16.30;46.50
13412;DHT22;67102;51.666;6.880;2023-03-16T15:55:05;16.20;46.30
13412;DHT22;67102;51.666;6.880;2023-03-16T15:57:31;16.40;46.60
13412;DHT22;67102;51.666;6.880;2023-03-16T15:59:58;16.30;46.60
13412;DHT22;67102;51.666;6.880;2023-03-16T16:02:27;16.30;46.70
13412;DHT22;67102;51.666;6.880;2023-03-16T16:04:54;16.20;46.90
13412;DHT22;67102;51.666;6.880;2023-03-16T16:12:14;16.20;46.20
13412;DHT22;67102;51.666;6.880;2023-03-16T16:14:40;15.20;45.70
13412;DHT22;67102;51.666;6.880;2023-03-16T16:17:11;16.00;45.60
13412;DHT22;67102;51.666;6.880;2023-03-16T16:19:39;16.30;45.70
13412;DHT22;67102;51.666;6.880;2023-03-16T16:29:30;16.00;45.80
13412;DHT22;67102;51.666;6.880;2023-03-16T16:34:24;16.00;46.20
13412;DHT22;67102;51.666;6.880;2023-03-16T16:36:51;16.00;46.10
13412;DHT22;67102;51.666;6.880;2023-03-16T16:39:17;15.90;45.90
13412;DHT22;67102;51.666;6.880;2023-03-16T16:41:43;16.00;46.10
13412;DHT22;67102;51.666;6.880;2023-03-16T16:44:15;15.90;45.90
13412;DHT22;67102;51.666;6.880;2023-03-16T16:46:42;15.90;45.50
13412;DHT22;67102;51.666;6.880;2023-03-16T16:49:13;16.00;45.40
13412;DHT22;67102;51.666;6.880;2023-03-16T16:51:41;16.00;45.40
13412;DHT22;67102;51.666;6.880;2023-03-16T16:54:14;15.70;45.40
13412;DHT22;67102;51.666;6.880;2023-03-16T16:56:40;15.70;45.60
13412;DHT22;67102;51.666;6.880;2023-03-16T16:59:14;15.70;45.50
13412;DHT22;67102;51.666;6.880;2023-03-16T17:01:41;15.80;45.70
13412;DHT22;67102;51.666;6.880;2023-03-16T17:04:13;15.60;45.60
13412;DHT22;67102;51.666;6.880;2023-03-16T17:06:41;15.60;45.70
13412;DHT22;67102;51.666;6.880;2023-03-16T17:11:35;15.50;45.80
13412;DHT22;67102;51.666;6.880;2023-03-16T17:14:02;15.40;45.90
13412;DHT22;67102;51.666;6.880;2023-03-16T17:16:31;15.00;45.70
13412;DHT22;67102;51.666;6.880;2023-03-16T17:21:28;15.30;45.90
13412;DHT22;67102;51.666;6.880;2023-03-16T17:23:57;15.20;45.90
13412;DHT22;67102;51.666;6.880;2023-03-16T17:26:25;15.20;45.90
13412;DHT22;67102;51.666;6.880;2023-03-16T17:28:55;15.10;45.90
13412;DHT22;67102;51.666;6.880;2023-03-16T17:31:25;15.10;46.00
13412;DHT22;67102;51.666;6.880;2023-03-16T17:33:53;15.00;46.00
13412;DHT22;67102;51.666;6.880;2023-03-16T17:36:20;15.00;46.10
13412;DHT22;67102;51.666;6.880;2023-03-16T17:38:46;14.70;46.10
13412;DHT22;67102;51.666;6.880;2023-03-16T17:41:21;14.90;46.30
13412;DHT22;67102;51.666;6.880;2023-03-16T17:43:49;14.80;46.30
13412;DHT22;67102;51.666;6.880;2023-03-16T17:46:18;14.80;46.40
13412;DHT22;67102;51.666;6.880;2023-03-16T17:51:13;14.70;46.50
13412;DHT22;67102;51.666;6.880;2023-03-16T17:53:39;14.60;46.60
13412;DHT22;67102;51.666;6.880;2023-03-16T17:56:14;14.60;46.80
13412;DHT22;67102;51.666;6.880;2023-03-16T17:58:42;14.50;46.80
13412;DHT22;67102;51.666;6.880;2023-03-16T18:01:09;14.50;46.90
13412;DHT22;67102;51.666;6.880;2023-03-16T18:06:04;14.40;47.10
13412;DHT22;67102;51.666;6.880;2023-03-16T18:08:31;14.40;47.10
13412;DHT22;67102;51.666;6.880;2023-03-16T18:10:58;14.30;47.20
13412;DHT22;67102;51.666;6.880;2023-03-16T18:13:28;14.30;47.30
13412;DHT22;67102;51.666;6.880;2023-03-16T18:15:56;14.30;47.40
13412;DHT22;67102;51.666;6.880;2023-03-16T18:18:25;14.20;47.50
13412;DHT22;67102;51.666;6.880;2023-03-16T18:20:53;14.20;47.60
13412;DHT22;67102;51.666;6.880;2023-03-16T18:23:20;14.20;47.70
13412;DHT22;67102;51.666;6.880;2023-03-16T18:25:47;14.10;47.80
13412;DHT22;67102;51.666;6.880;2023-03-16T18:28:15;14.10;48.00
13412;DHT22;67102;51.666;6.880;2023-03-16T18:30:43;14.10;48.20
13412;DHT22;67102;51.666;6.880;2023-03-16T18:33:21;14.00;48.30
13412;DHT22;67102;51.666;6.880;2023-03-16T18:35:49;14.00;48.40
13412;DHT22;67102;51.666;6.880;2023-03-16T18:38:17;13.90;48.50
13412;DHT22;67102;51.666;6.880;2023-03-16T18:40:50;13.90;48.60
13412;DHT22;67102;51.666;6.880;2023-03-16T18:43:16;13.90;48.80
13412;DHT22;67102;51.666;6.880;2023-03-16T18:45:43;13.90;49.00
13412;DHT22;67102;51.666;6.880;2023-03-16T18:48:19;13.70;49.00
13412;DHT22;67102;51.666;6.880;2023-03-16T18:50:49;13.80;49.20
13412;DHT22;67102;51.666;6.880;2023-03-16T18:53:16;13.90;49.40
13412;DHT22;67102;51.666;6.880;2023-03-16T18:58:12;13.80;49.60
13412;DHT22;67102;51.666;6.880;2023-03-16T19:03:20;13.80;49.80
13412;DHT22;67102;51.666;6.880;2023-03-16T19:05:47;13.90;49.90
13412;DHT22;67102;51.666;6.880;2023-03-16T19:10:43;13.80;50.00
13412;DHT22;67102;51.666;6.880;2023-03-16T19:13:12;13.90;50.00
13412;DHT22;67102;51.666;6.880;2023-03-16T19:15:39;13.80;50.10
13412;DHT22;67102;51.666;6.880;2023-03-16T19:18:05;14.10;50.30
13412;DHT22;67102;51.666;6.880;2023-03-16T19:20:34;13.80;50.10
13412;DHT22;67102;51.666;6.880;2023-03-16T19:23:02;13.80;50.20
13412;DHT22;67102;51.666;6.880;2023-03-16T19:25:32;13.90;50.30
13412;DHT22;67102;51.666;6.880;2023-03-16T19:30:28;13.70;50.20
13412;DHT22;67102;51.666;6.880;2023-03-16T19:32:55;13.90;50.30
13412;DHT22;67102;51.666;6.880;2023-03-16T19:35:23;13.80;50.30
13412;DHT22;67102;51.666;6.880;2023-03-16T19:37:51;13.80;50.30
13412;DHT22;67102;51.666;6.880;2023-03-16T19:40:19;13.90;50.30
13412;DHT22;67102;51.666;6.880;2023-03-16T19:42:46;14.00;50.50
13412;DHT22;67102;51.666;6.880;2023-03-16T19:45:20;13.90;50.30
13412;DHT22;67102;51.666;6.880;2023-03-16T19:50:16;13.80;50.70
13412;DHT22;67102;51.666;6.880;2023-03-16T19:55:15;13.80;50.30
13412;DHT22;67102;51.666;6.880;2023-03-16T19:57:43;13.70;50.30